Time,TemperatureF,DewpointF,PressureIn,WindDirection,WindDirectionDegrees,WindSpeedMPH,WindSpeedGustMPH,Humidity,HourlyPrecipIn,Conditions,Clouds,dailyrainin,SoftwareType,DateUTC
2013-06-24 00:05:00,77.5,74.0,30.23,WSW,238,9.0,17.0,89,0.00,,,0.00,weatherlink.com 1.10,2013-06-24 04:05:00,
2013-06-24 00:20:00,77.3,74.0,30.22,WSW,252,7.0,14.0,88,0.00,,,0.00,weatherlink.com 1.10,2013-06-24 04:20:00,
2013-06-24 00:35:00,77.4,74.0,30.22,WSW,240,7.0,13.0,88,0.00,,,0.00,weatherlink.com 1.10,2013-06-24 04:35:00,
2013-06-24 00:50:00,78.0,75.0,30.22,SW,226,12.0,16.0,89,0.00,,,0.00,weatherlink.com 1.10,2013-06-24 04:50:00,
2013-06-24 01:05:00,78.3,75.0,30.21,SW,232,10.0,14.0,90,0.00,,,0.00,weatherlink.com 1.10,2013-06-24 05:05:00,
2013-06-24 01:20:00,77.9,75.0,30.22,SW,233,6.0,11.0,89,0.00,,,0.00,weatherlink.com 1.10,2013-06-24 05:20:00,
2013-06-24 02:05:00,77.9,75.0,30.22,SW,235,5.0,11.0,90,0.00,,,0.00,weatherlink.com 1.10,2013-06-24 06:05:00,
2013-06-24 02:20:00,77.6,75.0,30.22,SW,228,7.0,7.0,91,0.00,,,0.00,weatherlink.com 1.10,2013-06-24 06:20:00,
2013-06-24 02:35:00,77.4,75.0,30.22,WSW,240,2.0,8.0,91,0.00,,,0.00,weatherlink.com 1.10,2013-06-24 06:35:00,
2013-06-24 02:50:00,77.3,75.0,30.22,WSW,238,4.0,5.0,92,0.00,,,0.00,weatherlink.com 1.10,2013-06-24 06:50:00,
2013-06-24 03:05:00,77.3,75.0,30.22,WSW,252,2.0,4.0,92,0.00,,,0.00,weatherlink.com 1.10,2013-06-24 07:05:00,
2013-06-24 03:20:00,77.1,75.0,30.23,WSW,239,3.0,3.0,92,0.00,,,0.00,weatherlink.com 1.10,2013-06-24 07:20:00,
2013-06-24 03:50:00,76.9,75.0,30.23,WSW,252,0.0,4.0,92,0.00,,,0.00,weatherlink.com 1.10,2013-06-24 07:50:00,
2013-06-24 04:20:00,76.8,74.0,30.23,WSW,254,1.0,3.0,92,0.00,,,0.00,weatherlink.com 1.10,2013-06-24 08:20:00,
2013-06-24 04:35:00,76.8,74.0,30.23,WSW,249,1.0,4.0,92,0.00,,,0.00,weatherlink.com 1.10,2013-06-24 08:35:00,
2013-06-24 04:50:00,76.5,74.0,30.24,WSW,255,3.0,3.0,93,0.00,,,0.00,weatherlink.com 1.10,2013-06-24 08:50:00,
2013-06-24 05:35:00,76.2,74.0,30.24,WSW,241,1.0,3.0,93,0.00,,,0.00,weatherlink.com 1.10,2013-06-24 09:35:00,
2013-06-24 05:51:00,76.2,74.0,30.23,WSW,240,3.0,4.0,93,0.00,,,0.00,weatherlink.com 1.10,2013-06-24 09:51:00,
2013-06-24 06:20:00,76.7,75.0,30.24,SSW,210,5.0,5.0,94,0.00,,,0.00,weatherlink.com 1.10,2013-06-24 10:20:00,
2013-06-24 06:35:00,77.0,75.0,30.24,SW,222,5.0,7.0,93,0.00,,,0.00,weatherlink.com 1.10,2013-06-24 10:35:00,
2013-06-24 06:50:00,77.4,75.0,30.24,SW,229,7.0,10.0,92,0.00,,,0.00,weatherlink.com 1.10,2013-06-24 10:50:00,
2013-06-24 07:05:00,78.5,76.0,30.24,SW,222,8.0,9.0,91,0.00,,,0.00,weatherlink.com 1.10,2013-06-24 11:05:00,
2013-06-24 07:20:00,79.3,76.0,30.24,SW,224,8.0,10.0,89,0.00,,,0.00,weatherlink.com 1.10,2013-06-24 11:20:00,
2013-06-24 07:50:00,79.2,75.0,30.25,WSW,243,5.0,12.0,86,0.00,,,0.00,weatherlink.com 1.10,2013-06-24 11:50:00,
2013-06-24 08:06:00,80.1,75.0,30.25,SW,219,5.0,12.0,84,0.00,,,0.00,weatherlink.com 1.10,2013-06-24 12:06:00,
2013-06-24 08:21:00,80.3,74.0,30.26,WSW,255,7.0,13.0,81,0.00,,,0.00,weatherlink.com 1.10,2013-06-24 12:21:00,
2013-06-24 08:36:00,81.0,74.0,30.26,WSW,240,9.0,15.0,80,0.00,,,0.00,weatherlink.com 1.10,2013-06-24 12:36:00,
2013-06-24 08:51:00,81.6,75.0,30.26,SSW,202,8.0,15.0,80,0.00,,,0.00,weatherlink.com 1.10,2013-06-24 12:51:00,
2013-06-24 09:06:00,82.3,75.0,30.27,WNW,291,8.0,11.0,78,0.00,,,0.00,weatherlink.com 1.10,2013-06-24 13:06:00,
2013-06-24 09:21:00,77.6,71.0,30.26,WNW,297,6.0,6.0,81,0.00,,,0.00,weatherlink.com 1.10,2013-06-24 13:21:00,
2013-06-24 09:36:00,77.8,72.0,30.27,WSW,255,2.0,5.0,82,0.00,,,0.00,weatherlink.com 1.10,2013-06-24 13:36:00,
2013-06-24 09:51:00,79.5,73.0,30.27,NW,312,3.0,5.0,81,0.00,,,0.00,weatherlink.com 1.10,2013-06-24 13:51:00,
2013-06-24 10:06:00,81.4,75.0,30.26,WNW,285,3.0,6.0,80,0.00,,,0.00,weatherlink.com 1.10,2013-06-24 14:06:00,
2013-06-24 10:21:00,81.5,75.0,30.27,SW,225,1.0,6.0,80,0.00,,,0.00,weatherlink.com 1.10,2013-06-24 14:21:00,
2013-06-24 10:36:00,81.0,75.0,30.26,SW,235,12.0,16.0,82,0.00,,,0.00,weatherlink.com 1.10,2013-06-24 14:36:00,
2013-06-24 10:51:00,80.4,73.0,30.27,West,278,4.0,11.0,79,0.00,,,0.00,weatherlink.com 1.10,2013-06-24 14:51:00,
2013-06-24 11:36:00,81.2,75.0,30.24,SSW,192,12.0,16.0,82,0.00,,,0.00,weatherlink.com 1.10,2013-06-24 15:36:00,
2013-06-24 11:51:00,82.5,75.0,30.24,WSW,242,13.0,18.0,79,0.00,,,0.00,weatherlink.com 1.10,2013-06-24 15:51:00,
2013-06-24 12:06:00,82.7,76.0,30.24,WSW,243,11.0,18.0,79,0.00,,,0.00,weatherlink.com 1.10,2013-06-24 16:06:00,
2013-06-24 12:21:00,82.6,75.0,30.24,SW,221,13.0,20.0,77,0.00,,,0.00,weatherlink.com 1.10,2013-06-24 16:21:00,
2013-06-24 12:36:00,82.7,75.0,30.25,SSW,198,10.0,22.0,77,0.00,,,0.00,weatherlink.com 1.10,2013-06-24 16:36:00,
2013-06-24 13:06:00,83.1,76.0,30.25,WSW,243,13.0,18.0,78,0.00,,,0.00,weatherlink.com 1.10,2013-06-24 17:06:00,
2013-06-24 13:51:00,83.2,76.0,30.23,SW,227,15.0,18.0,78,0.00,,,0.00,weatherlink.com 1.10,2013-06-24 17:51:00,
2013-06-24 14:36:00,82.8,76.0,30.21,SW,235,9.0,20.0,79,0.00,,,0.00,weatherlink.com 1.10,2013-06-24 18:36:00,
2013-06-24 14:51:00,82.4,75.0,30.21,SW,214,8.0,18.0,78,0.00,,,0.00,weatherlink.com 1.10,2013-06-24 18:51:00,
2013-06-24 15:06:00,82.0,75.0,30.20,WSW,245,12.0,19.0,80,0.00,,,0.00,weatherlink.com 1.10,2013-06-24 19:06:00,
2013-06-24 15:21:00,82.5,75.0,30.20,WSW,250,13.0,21.0,79,0.00,,,0.00,weatherlink.com 1.10,2013-06-24 19:21:00,
2013-06-24 15:51:00,81.0,75.0,30.19,WSW,238,10.0,17.0,82,0.00,,,0.00,weatherlink.com 1.10,2013-06-24 19:51:00,
2013-06-24 16:06:00,81.0,75.0,30.19,SW,223,15.0,17.0,83,0.00,,,0.00,weatherlink.com 1.10,2013-06-24 20:06:00,
2013-06-24 16:21:00,81.0,75.0,30.19,SW,233,10.0,19.0,83,0.00,,,0.00,weatherlink.com 1.10,2013-06-24 20:21:00,
2013-06-24 16:51:00,81.6,75.0,30.19,WSW,242,11.0,23.0,80,0.00,,,0.00,weatherlink.com 1.10,2013-06-24 20:51:00,
2013-06-24 17:06:00,81.2,75.0,30.18,WSW,245,16.0,20.0,82,0.00,,,0.00,weatherlink.com 1.10,2013-06-24 21:06:00,
2013-06-24 17:21:00,81.1,76.0,30.18,WSW,255,8.0,14.0,83,0.00,,,0.00,weatherlink.com 1.10,2013-06-24 21:21:00,
2013-06-24 17:36:00,80.8,76.0,30.18,WSW,251,12.0,18.0,84,0.00,,,0.00,weatherlink.com 1.10,2013-06-24 21:36:00,
2013-06-24 17:51:00,80.3,76.0,30.17,WSW,238,8.0,22.0,85,0.00,,,0.00,weatherlink.com 1.10,2013-06-24 21:51:00,
2013-06-24 18:06:00,80.1,75.0,30.16,SW,236,10.0,19.0,85,0.00,,,0.00,weatherlink.com 1.10,2013-06-24 22:06:00,
2013-06-24 18:21:00,79.9,75.0,30.15,SW,221,11.0,18.0,86,0.00,,,0.00,weatherlink.com 1.10,2013-06-24 22:21:00,
2013-06-24 18:36:00,80.0,76.0,30.14,SW,229,14.0,22.0,87,0.00,,,0.00,weatherlink.com 1.10,2013-06-24 22:36:00,
2013-06-24 18:51:00,79.9,76.0,30.14,SSW,201,14.0,21.0,87,0.00,,,0.00,weatherlink.com 1.10,2013-06-24 22:51:00,
2013-06-24 19:06:00,79.7,76.0,30.14,SW,233,11.0,21.0,87,0.00,,,0.00,weatherlink.com 1.10,2013-06-24 23:06:00,
2013-06-24 19:21:00,79.6,75.0,30.14,SW,233,14.0,19.0,86,0.00,,,0.00,weatherlink.com 1.10,2013-06-24 23:21:00,
2013-06-24 19:36:00,79.5,75.0,30.15,SW,233,13.0,18.0,85,0.00,,,0.00,weatherlink.com 1.10,2013-06-24 23:36:00,
2013-06-24 19:51:00,79.3,75.0,30.15,SW,235,13.0,-999.0,86,-99.99,,,0.00,weatherlink.com 1.10,2013-06-24 23:51:00,
2013-06-24 20:07:00,79.2,75.0,30.16,West,260,17.0,19.0,86,0.00,,,0.00,weatherlink.com 1.10,2013-06-25 00:07:00,
2013-06-24 20:22:00,79.1,75.0,30.16,SSW,212,9.0,16.0,86,0.00,,,0.00,weatherlink.com 1.10,2013-06-25 00:22:00,
2013-06-24 20:37:00,78.9,75.0,30.17,WSW,257,9.0,13.0,87,0.00,,,0.00,weatherlink.com 1.10,2013-06-25 00:37:00,
2013-06-24 20:52:00,78.8,75.0,30.17,SW,226,13.0,14.0,87,0.00,,,0.00,weatherlink.com 1.10,2013-06-25 00:52:00,
2013-06-24 21:07:00,78.7,75.0,30.17,SW,233,7.0,13.0,88,0.00,,,0.00,weatherlink.com 1.10,2013-06-25 01:07:00,
2013-06-24 21:22:00,78.5,75.0,30.17,WSW,239,7.0,14.0,88,0.00,,,0.00,weatherlink.com 1.10,2013-06-25 01:22:00,
2013-06-24 21:37:00,78.4,75.0,30.17,WSW,242,8.0,14.0,89,0.00,,,0.00,weatherlink.com 1.10,2013-06-25 01:37:00,
2013-06-24 22:07:00,78.2,75.0,30.17,WSW,240,4.0,11.0,89,0.00,,,0.00,weatherlink.com 1.10,2013-06-25 02:07:00,
2013-06-24 22:22:00,78.1,75.0,30.18,WSW,245,4.0,13.0,89,0.00,,,0.00,weatherlink.com 1.10,2013-06-25 02:22:00,
2013-06-24 22:52:00,78.0,75.0,30.18,SW,225,11.0,13.0,89,0.00,,,0.00,weatherlink.com 1.10,2013-06-25 02:52:00,
2013-06-24 23:07:00,77.9,74.0,30.18,WSW,243,6.0,10.0,88,0.00,,,0.00,weatherlink.com 1.10,2013-06-25 03:07:00,
2013-06-24 23:22:00,77.9,74.0,30.17,SW,229,8.0,14.0,88,0.00,,,0.00,weatherlink.com 1.10,2013-06-25 03:22:00,
2013-06-24 23:37:00,78.1,74.0,30.17,SSW,198,10.0,14.0,88,0.00,,,0.00,weatherlink.com 1.10,2013-06-25 03:37:00,